createdAt,value
2022-10-12T00:02:34.715Z,79.61
2022-10-12T00:05:20.092Z,78.94
2022-10-12T00:08:05.295Z,78.89
2022-10-12T00:10:50.588Z,78.73
2022-10-12T00:13:35.754Z,78.72
2022-10-12T00:16:24.803Z,78.62
2022-10-12T00:19:12.546Z,78.48
2022-10-12T00:21:57.743Z,79.06
2022-10-12T00:24:43.072Z,79.04
2022-10-12T00:27:28.390Z,78.98
2022-10-12T00:30:13.702Z,78.99
2022-10-12T00:32:58.958Z,79.11
2022-10-12T00:35:44.372Z,79.14
2022-10-12T00:38:29.773Z,78.70
2022-10-12T00:41:17.360Z,79.17
2022-10-12T00:44:02.566Z,79.23
2022-10-12T00:46:48.130Z,79.09
2022-10-12T00:49:34.152Z,78.93
2022-10-12T00:52:26.190Z,78.92
2022-10-12T00:55:15.253Z,79.11
2022-10-12T00:58:00.997Z,78.70
2022-10-12T01:00:46.844Z,78.83
2022-10-12T01:03:32.612Z,78.60
2022-10-12T01:06:18.519Z,78.86
2022-10-12T01:09:04.691Z,79.32
2022-10-12T01:11:50.173Z,79.27
2022-10-12T01:14:36.135Z,79.55
2022-10-12T01:17:48.546Z,79.57
2022-10-12T01:21:19.477Z,79.62
2022-10-12T01:24:17.437Z,79.84
2022-10-12T01:27:32.893Z,79.52
2022-10-12T01:30:22.316Z,79.86
2022-10-12T01:33:32.111Z,79.54
2022-10-12T01:36:27.350Z,79.85
2022-10-12T01:39:21.362Z,79.64
2022-10-12T01:42:16.990Z,79.73
2022-10-12T01:45:03.282Z,79.65
2022-10-12T01:47:52.653Z,79.85
2022-10-12T01:50:49.851Z,79.92
2022-10-12T01:53:50.240Z,79.79
2022-10-12T01:56:43.764Z,80.18
2022-10-12T02:00:07.146Z,80.32
2022-10-12T02:03:09.925Z,80.29
2022-10-12T02:06:13.710Z,80.40
2022-10-12T02:09:05.888Z,80.38
2022-10-12T02:11:54.766Z,80.19
2022-10-12T02:15:00.642Z,80.20
2022-10-12T02:17:49.409Z,80.43
2022-10-12T02:20:37.643Z,80.43
2022-10-12T02:23:24.697Z,79.97
2022-10-12T02:26:12.318Z,80.40
2022-10-12T02:28:59.626Z,80.46
2022-10-12T02:31:53.158Z,80.37
2022-10-12T02:34:46.103Z,80.20
2022-10-12T02:37:48.738Z,80.35
2022-10-12T02:40:41.801Z,80.50
2022-10-12T02:43:38.128Z,80.80
2022-10-12T02:46:25.609Z,79.98
2022-10-12T02:49:12.651Z,80.33
2022-10-12T02:51:58.422Z,80.35
2022-10-12T02:54:43.622Z,79.95
2022-10-12T02:57:29.001Z,80.49
2022-10-12T03:00:15.027Z,80.55
2022-10-12T03:03:00.105Z,80.69
2022-10-12T03:05:46.119Z,80.72
2022-10-12T03:08:31.301Z,80.36
2022-10-12T03:11:16.578Z,80.74
2022-10-12T03:14:01.801Z,80.64
2022-10-12T03:16:48.077Z,80.73
2022-10-12T03:19:33.529Z,80.72
2022-10-12T03:22:18.699Z,80.76
2022-10-12T03:25:04.434Z,81.08
2022-10-12T03:27:49.735Z,80.74
2022-10-12T03:30:34.912Z,80.41
2022-10-12T03:33:20.240Z,80.68
2022-10-12T03:36:06.037Z,80.83
2022-10-12T03:38:51.393Z,80.54
2022-10-12T03:41:36.622Z,79.97
2022-10-12T03:44:22.233Z,80.16
2022-10-12T03:47:07.317Z,80.10
2022-10-12T03:49:52.780Z,79.97
2022-10-12T03:52:38.183Z,79.59
2022-10-12T03:55:23.768Z,79.79
2022-10-12T03:58:08.983Z,79.24
2022-10-12T04:00:55.044Z,79.30
2022-10-12T04:03:40.493Z,79.57
2022-10-12T04:06:25.604Z,79.18
2022-10-12T04:09:10.843Z,79.62
2022-10-12T04:11:55.913Z,79.78
2022-10-12T04:14:41.358Z,79.42
2022-10-12T04:17:26.752Z,80.14
2022-10-12T04:20:13.039Z,80.07
2022-10-12T04:22:58.590Z,79.75
2022-10-12T04:25:43.794Z,80.11
2022-10-12T04:28:28.988Z,79.90
2022-10-12T04:31:14.136Z,80.19
2022-10-12T04:33:59.587Z,79.68
2022-10-12T04:36:44.801Z,79.65
2022-10-12T04:39:30.435Z,79.51
2022-10-12T04:42:16.030Z,79.15
2022-10-12T04:45:01.331Z,79.59
2022-10-12T04:47:46.514Z,79.15
2022-10-12T04:50:32.215Z,79.25
2022-10-12T04:53:17.547Z,79.19
2022-10-12T04:56:04.797Z,79.18
2022-10-12T04:58:49.903Z,79.27
2022-10-12T05:01:35.119Z,79.42
2022-10-12T05:04:20.633Z,79.41
2022-10-12T05:07:05.749Z,79.45
2022-10-12T05:09:50.962Z,79.09
2022-10-12T05:12:36.606Z,78.99
2022-10-12T05:15:22.168Z,79.46
2022-10-12T05:18:07.386Z,79.33
2022-10-12T05:20:56.870Z,78.92
2022-10-12T05:23:42.435Z,78.57
2022-10-12T05:26:28.000Z,78.46
2022-10-12T05:29:13.151Z,78.46
2022-10-12T05:31:58.435Z,78.78
2022-10-12T05:34:43.760Z,78.32
2022-10-12T05:37:28.998Z,78.66
2022-10-12T05:40:14.389Z,78.62
2022-10-12T05:42:59.600Z,78.59
2022-10-12T05:45:44.826Z,78.03
2022-10-12T05:48:33.311Z,77.92
2022-10-12T05:51:18.352Z,77.78
2022-10-12T05:54:04.287Z,77.52
2022-10-12T05:56:49.524Z,77.61
2022-10-12T05:59:34.923Z,77.79
2022-10-12T06:02:20.449Z,77.64
2022-10-12T06:05:05.978Z,78.28
2022-10-12T06:07:51.301Z,77.66
2022-10-12T06:10:38.052Z,77.72
2022-10-12T06:13:23.801Z,77.40
2022-10-12T06:16:08.899Z,77.10
2022-10-12T06:18:53.921Z,77.27
2022-10-12T06:21:39.546Z,76.21
2022-10-12T06:24:24.543Z,76.61
2022-10-12T06:27:10.326Z,75.89
2022-10-12T06:29:55.682Z,75.74
2022-10-12T06:32:41.155Z,75.81
2022-10-12T06:35:26.506Z,75.12
2022-10-12T06:38:11.547Z,75.41
2022-10-12T06:40:57.461Z,75.13
2022-10-12T06:43:43.065Z,74.67
2022-10-12T06:46:28.693Z,74.27
2022-10-12T06:49:13.854Z,73.90
2022-10-12T06:51:59.053Z,73.75
2022-10-12T06:54:44.571Z,72.91
2022-10-12T06:57:29.787Z,71.98
2022-10-12T07:00:15.973Z,72.07
2022-10-12T07:03:01.350Z,72.14
2022-10-12T07:05:46.782Z,71.37
2022-10-12T07:08:32.108Z,70.86
2022-10-12T07:11:17.542Z,70.84
2022-10-12T07:14:02.957Z,70.96
2022-10-12T07:16:52.899Z,71.17
2022-10-12T07:19:39.958Z,70.87
2022-10-12T07:22:26.340Z,70.64
2022-10-12T07:25:11.586Z,70.79
2022-10-12T07:27:56.770Z,70.17
2022-10-12T07:30:42.117Z,69.51
2022-10-12T07:33:27.117Z,68.95
2022-10-12T07:36:14.843Z,68.47
2022-10-12T07:39:01.076Z,79.28
2022-10-12T07:41:46.527Z,69.31
2022-10-12T07:44:32.810Z,66.61
2022-10-12T07:47:19.327Z,66.65
2022-10-12T07:50:05.131Z,66.45
2022-10-12T07:52:50.163Z,66.39
2022-10-12T07:55:35.819Z,66.88
2022-10-12T07:58:20.983Z,65.83
2022-10-12T08:01:08.567Z,65.73
2022-10-12T08:03:58.802Z,64.86
2022-10-12T08:06:46.678Z,64.71
2022-10-12T08:09:31.895Z,64.02
2022-10-12T08:12:16.967Z,62.78
2022-10-12T08:15:02.003Z,62.17
2022-10-12T08:17:47.532Z,62.14
2022-10-12T08:20:32.491Z,61.75
2022-10-12T08:23:17.835Z,61.95
2022-10-12T08:26:03.890Z,61.43
2022-10-12T08:28:49.423Z,61.25
2022-10-12T08:31:35.813Z,61.15
2022-10-12T08:34:21.600Z,60.38
2022-10-12T08:37:07.765Z,58.39
2022-10-12T08:39:52.987Z,55.16
2022-10-12T08:43:16.670Z,50.15
2022-10-12T08:46:04.214Z,48.01
2022-10-12T08:49:25.655Z,46.81
2022-10-12T08:52:23.582Z,47.39
2022-10-12T08:55:39.446Z,49.42
2022-10-12T08:58:31.999Z,50.97
2022-10-12T09:01:49.886Z,51.72
2022-10-12T09:05:10.865Z,51.60
2022-10-12T09:08:07.318Z,52.13
2022-10-12T09:11:22.942Z,53.00
2022-10-12T09:14:21.043Z,53.33
2022-10-12T09:17:42.079Z,54.17
2022-10-12T09:20:31.275Z,54.12
2022-10-12T09:23:31.520Z,54.22
2022-10-12T09:26:28.405Z,54.39
2022-10-12T09:29:25.956Z,53.97
2022-10-12T09:32:16.958Z,53.87
2022-10-12T09:35:04.714Z,53.92
2022-10-12T09:37:52.834Z,53.62
2022-10-12T09:40:39.028Z,53.12
2022-10-12T09:43:24.447Z,52.93
2022-10-12T09:46:15.511Z,52.08
2022-10-12T09:49:01.476Z,51.96
2022-10-12T09:51:47.046Z,51.71
2022-10-12T09:54:33.527Z,51.82
2022-10-12T09:57:35.446Z,52.43
2022-10-12T10:00:34.686Z,51.54
2022-10-12T10:03:25.755Z,50.98
2022-10-12T10:06:15.535Z,50.13
2022-10-12T10:09:03.777Z,50.44
2022-10-12T10:11:49.234Z,50.06
2022-10-12T10:14:35.973Z,50.16
2022-10-12T10:17:31.447Z,49.66
2022-10-12T10:20:27.049Z,49.92
2022-10-12T10:23:32.792Z,49.85
2022-10-12T10:26:20.752Z,49.92
2022-10-12T10:29:26.024Z,49.32
2022-10-12T10:32:28.854Z,49.77
2022-10-12T10:35:13.817Z,49.32
2022-10-12T10:38:00.902Z,48.79
2022-10-12T10:40:52.134Z,48.23
2022-10-12T10:43:37.425Z,48.32
2022-10-12T10:46:30.612Z,47.88
2022-10-12T10:49:37.947Z,48.02
2022-10-12T10:52:27.843Z,47.80
2022-10-12T10:55:13.100Z,47.95
2022-10-12T10:58:12.201Z,48.46
2022-10-12T11:01:10.423Z,47.96
2022-10-12T11:04:02.688Z,46.62
2022-10-12T11:06:56.933Z,46.95
2022-10-12T11:09:45.948Z,47.28
2022-10-12T11:12:35.984Z,47.77
2022-10-12T11:15:32.494Z,47.31
2022-10-12T11:18:28.950Z,46.80
2022-10-12T11:21:38.894Z,46.76
2022-10-12T11:24:27.412Z,45.85
2022-10-12T11:27:22.011Z,45.85
2022-10-12T11:30:15.554Z,45.05
2022-10-12T11:33:12.312Z,45.30
2022-10-12T11:35:58.735Z,45.99
2022-10-12T11:38:51.219Z,46.25
2022-10-12T11:42:09.831Z,46.10
2022-10-12T11:44:51.838Z,45.33
2022-10-12T11:47:41.923Z,45.29
2022-10-12T11:50:37.307Z,45.05
2022-10-12T11:54:09.065Z,46.48
2022-10-12T11:57:00.470Z,47.12
2022-10-12T12:00:06.079Z,47.44
2022-10-12T12:03:42.459Z,48.06
2022-10-12T12:06:30.883Z,47.35
2022-10-12T12:09:35.526Z,47.34
2022-10-12T12:12:28.499Z,46.98
2022-10-12T12:15:22.146Z,47.08
2022-10-12T12:18:20.039Z,47.07
2022-10-12T12:21:08.037Z,47.75
2022-10-12T12:23:55.648Z,47.70
2022-10-12T12:26:47.449Z,46.88
2022-10-12T12:29:32.715Z,46.80
2022-10-12T12:32:18.979Z,45.45
2022-10-12T12:35:05.017Z,45.49
2022-10-12T12:38:17.206Z,45.32
2022-10-12T12:41:04.142Z,45.36
2022-10-12T12:43:59.914Z,45.11
2022-10-12T12:46:54.567Z,45.05
2022-10-12T12:49:50.899Z,45.55
2022-10-12T12:52:42.284Z,45.19
2022-10-12T12:55:57.535Z,46.70
2022-10-12T12:59:01.767Z,46.13
2022-10-12T13:02:17.019Z,45.90
2022-10-12T13:05:41.057Z,46.10
2022-10-12T13:08:38.702Z,46.12
2022-10-12T13:11:54.898Z,45.38
2022-10-12T13:14:46.189Z,45.30
2022-10-12T13:18:09.067Z,45.53
2022-10-12T13:21:00.618Z,45.21
2022-10-12T13:23:49.090Z,45.28
2022-10-12T13:26:36.516Z,44.94
2022-10-12T13:29:52.155Z,45.20
2022-10-12T13:32:59.096Z,45.23
2022-10-12T13:36:08.294Z,45.25
2022-10-12T13:38:59.087Z,45.14
2022-10-12T13:41:46.082Z,45.13
2022-10-12T13:44:35.412Z,45.15
2022-10-12T13:47:22.560Z,45.48
2022-10-12T13:50:20.770Z,46.17
2022-10-12T13:53:14.815Z,47.35
2022-10-12T13:56:16.544Z,47.37
2022-10-12T13:59:06.713Z,47.64
2022-10-12T14:02:00.824Z,46.99
2022-10-12T14:04:45.951Z,47.10
2022-10-12T14:07:39.204Z,46.72
2022-10-12T14:10:38.736Z,46.81
2022-10-12T14:13:26.657Z,47.29
2022-10-12T14:16:14.208Z,47.43
2022-10-12T14:19:19.661Z,47.41
2022-10-12T14:22:05.655Z,47.10
2022-10-12T14:24:56.883Z,47.33
2022-10-12T14:27:42.384Z,47.29
2022-10-12T14:30:32.449Z,47.46
2022-10-12T14:33:18.051Z,47.71
2022-10-12T14:36:21.608Z,47.18
2022-10-12T14:39:13.712Z,47.41
2022-10-12T14:42:02.731Z,47.16
2022-10-12T14:44:49.127Z,47.38
2022-10-12T14:47:39.045Z,47.85
2022-10-12T14:50:24.660Z,47.74
2022-10-12T14:53:12.791Z,48.12
2022-10-12T14:55:58.174Z,48.30
2022-10-12T14:58:43.487Z,47.93
2022-10-12T15:01:29.068Z,48.69
2022-10-12T15:04:15.171Z,48.99
2022-10-12T15:07:00.366Z,49.26
2022-10-12T15:09:45.861Z,48.66
2022-10-12T15:12:31.433Z,48.21
2022-10-12T15:15:35.117Z,48.58
2022-10-12T15:18:20.404Z,48.88
2022-10-12T15:21:05.591Z,48.58
2022-10-12T15:23:51.141Z,48.38
2022-10-12T15:26:42.100Z,48.24
2022-10-12T15:29:27.601Z,48.84
2022-10-12T15:32:15.022Z,49.01
2022-10-12T15:35:00.976Z,49.35
2022-10-12T15:37:46.996Z,49.28
2022-10-12T15:40:34.220Z,49.48
2022-10-12T15:43:20.804Z,49.87
2022-10-12T15:46:09.327Z,50.02
2022-10-12T15:48:54.841Z,50.31
2022-10-12T15:51:45.733Z,50.02
2022-10-12T15:54:30.965Z,50.08
2022-10-12T15:57:16.618Z,50.70
2022-10-12T16:00:01.971Z,51.17
2022-10-12T16:02:57.362Z,51.80
2022-10-12T16:05:42.968Z,52.03
2022-10-12T16:08:28.038Z,52.35
2022-10-12T16:11:16.645Z,52.24
2022-10-12T16:14:02.249Z,52.76
2022-10-12T16:16:47.658Z,52.77
2022-10-12T16:19:33.510Z,53.63
2022-10-12T16:22:18.907Z,53.99
2022-10-12T16:25:06.241Z,54.25
2022-10-12T16:27:53.101Z,54.08
2022-10-12T16:30:40.288Z,54.58
2022-10-12T16:33:25.816Z,54.90
2022-10-12T16:36:13.412Z,54.96
2022-10-12T16:38:58.873Z,55.10
2022-10-12T16:41:44.366Z,55.52
2022-10-12T16:44:29.843Z,55.67
2022-10-12T16:47:15.559Z,55.95
2022-10-12T16:50:03.925Z,56.17
2022-10-12T16:52:49.546Z,56.52
2022-10-12T16:55:37.263Z,56.56
2022-10-12T16:58:22.734Z,56.72
2022-10-12T17:01:10.367Z,57.12
2022-10-12T17:03:55.827Z,57.57
2022-10-12T17:06:41.675Z,57.67
2022-10-12T17:09:27.499Z,57.43
2022-10-12T17:12:13.389Z,57.92
2022-10-12T17:14:58.640Z,58.00
2022-10-12T17:17:43.848Z,58.45
2022-10-12T17:20:29.074Z,58.66
2022-10-12T17:23:14.209Z,58.74
2022-10-12T17:25:59.636Z,58.80
2022-10-12T17:28:45.042Z,58.69
2022-10-12T17:31:30.415Z,58.78
2022-10-12T17:34:23.344Z,59.24
2022-10-12T17:37:12.846Z,59.23
2022-10-12T17:39:58.244Z,59.29
2022-10-12T17:42:43.690Z,59.52
2022-10-12T17:45:29.125Z,59.67
2022-10-12T17:48:16.005Z,60.06
2022-10-12T17:51:05.996Z,60.11
2022-10-12T17:53:51.809Z,60.25
2022-10-12T17:56:36.961Z,60.43
2022-10-12T17:59:22.297Z,60.59
2022-10-12T18:02:09.663Z,60.90
2022-10-12T18:04:54.947Z,61.17
2022-10-12T18:07:40.747Z,60.98
2022-10-12T18:10:28.438Z,61.38
2022-10-12T18:13:14.306Z,61.70
2022-10-12T18:16:00.141Z,61.71
2022-10-12T18:18:50.439Z,61.98
2022-10-12T18:21:36.502Z,62.66
2022-10-12T18:24:23.170Z,62.37
2022-10-12T18:27:08.977Z,62.63
2022-10-12T18:29:56.084Z,62.42
2022-10-12T18:32:43.974Z,62.63
2022-10-12T18:35:30.785Z,62.72
2022-10-12T18:38:15.943Z,62.87
2022-10-12T18:41:07.203Z,63.03
2022-10-12T18:43:58.168Z,62.96
2022-10-12T18:46:44.112Z,63.38
2022-10-12T18:49:29.509Z,63.28
2022-10-12T18:52:14.973Z,63.63
2022-10-12T18:55:00.452Z,63.34
2022-10-12T18:57:45.510Z,63.40
2022-10-12T19:00:31.499Z,63.36
2022-10-12T19:03:17.105Z,63.46
2022-10-12T19:06:09.795Z,63.88
2022-10-12T19:08:56.226Z,63.81
2022-10-12T19:11:41.598Z,63.92
2022-10-12T19:14:29.987Z,64.10
2022-10-12T19:17:16.031Z,64.12
2022-10-12T19:20:03.222Z,63.97
2022-10-12T19:22:48.771Z,63.90
2022-10-12T19:25:38.386Z,64.43
2022-10-12T19:28:23.656Z,64.27
2022-10-12T19:31:12.502Z,64.50
2022-10-12T19:33:59.951Z,64.90
2022-10-12T19:36:45.979Z,64.83
2022-10-12T19:39:32.869Z,64.79
2022-10-12T19:42:18.495Z,64.97
2022-10-12T19:45:04.095Z,65.07
2022-10-12T19:47:49.508Z,65.21
2022-10-12T19:50:35.565Z,65.60
2022-10-12T19:53:20.852Z,66.07
2022-10-12T19:56:17.776Z,65.78
2022-10-12T19:59:03.225Z,65.62
2022-10-12T20:01:48.502Z,65.96
2022-10-12T20:04:35.506Z,66.03
2022-10-12T20:07:21.284Z,65.81
2022-10-12T20:10:07.620Z,66.13
2022-10-12T20:12:52.912Z,66.71
2022-10-12T20:15:40.592Z,66.23
2022-10-12T20:18:26.510Z,66.33
2022-10-12T20:21:14.912Z,66.58
2022-10-12T20:24:00.238Z,66.76
2022-10-12T20:26:45.752Z,66.55
2022-10-12T20:29:31.014Z,66.85
2022-10-12T20:32:19.731Z,66.90
2022-10-12T20:35:05.828Z,67.27
2022-10-12T20:37:50.953Z,67.37
2022-10-12T20:40:36.422Z,67.34
2022-10-12T20:43:21.608Z,67.55
2022-10-12T20:46:18.418Z,67.51
2022-10-12T20:49:04.244Z,67.72
2022-10-12T20:51:49.543Z,68.02
2022-10-12T20:54:36.141Z,67.86
2022-10-12T20:57:21.394Z,67.99
2022-10-12T21:00:07.168Z,68.41
2022-10-12T21:02:52.503Z,68.51
2022-10-12T21:05:37.629Z,68.40
2022-10-12T21:08:23.480Z,68.59
2022-10-12T21:11:10.717Z,68.87
2022-10-12T21:13:56.119Z,68.97
2022-10-12T21:16:41.903Z,69.22
2022-10-12T21:19:27.012Z,69.62
2022-10-12T21:22:12.525Z,69.76
2022-10-12T21:25:00.201Z,69.75
2022-10-12T21:27:45.866Z,69.82
2022-10-12T21:30:31.271Z,70.20
2022-10-12T21:33:18.144Z,73.75
2022-10-12T21:36:16.531Z,73.06
2022-10-12T21:39:02.096Z,71.20
2022-10-12T21:41:47.341Z,70.79
2022-10-12T21:44:35.373Z,70.77
2022-10-12T21:47:20.907Z,70.71
2022-10-12T21:50:09.165Z,70.75
2022-10-12T21:53:00.018Z,70.80
2022-10-12T21:55:45.331Z,71.10
2022-10-12T21:58:30.647Z,70.92
2022-10-12T22:01:23.690Z,70.98
2022-10-12T22:04:14.742Z,71.53
2022-10-12T22:07:00.740Z,71.77
2022-10-12T22:09:45.881Z,71.66
2022-10-12T22:12:31.248Z,72.07
2022-10-12T22:15:16.879Z,71.91
2022-10-12T22:18:02.136Z,71.90
2022-10-12T22:20:48.671Z,72.52
2022-10-12T22:23:34.389Z,72.43
2022-10-12T22:26:22.773Z,72.27
2022-10-12T22:29:16.063Z,72.79
2022-10-12T22:32:02.241Z,72.71
2022-10-12T22:34:47.427Z,72.92
2022-10-12T22:37:32.931Z,73.87
2022-10-12T22:40:18.448Z,73.42
2022-10-12T22:43:03.725Z,73.38
2022-10-12T22:45:49.245Z,73.76
2022-10-12T22:48:36.069Z,73.67
2022-10-12T22:51:33.074Z,73.68
2022-10-12T22:54:18.600Z,74.08
2022-10-12T22:57:04.057Z,74.02
2022-10-12T22:59:50.203Z,74.07
2022-10-12T23:02:35.653Z,73.90
2022-10-12T23:05:21.036Z,74.23
2022-10-12T23:08:06.622Z,73.95
2022-10-12T23:10:51.711Z,74.14
2022-10-12T23:13:38.510Z,74.22
2022-10-12T23:16:27.013Z,74.37
2022-10-12T23:19:12.074Z,74.17
2022-10-12T23:21:57.440Z,74.72
2022-10-12T23:24:42.809Z,74.89
2022-10-12T23:27:28.467Z,75.24
2022-10-12T23:30:14.138Z,75.31
2022-10-12T23:32:59.387Z,75.54
2022-10-12T23:35:45.211Z,75.88
2022-10-12T23:38:31.865Z,76.16
2022-10-12T23:41:17.564Z,76.02
2022-10-12T23:44:02.910Z,76.12
2022-10-12T23:46:48.232Z,76.43
2022-10-12T23:49:33.427Z,75.96
2022-10-12T23:52:19.942Z,76.46
2022-10-12T23:55:07.002Z,76.29
2022-10-12T23:57:52.541Z,76.24
